createdAt,value
2023-04-16T00:01:28.682Z,8.30
2023-04-16T00:03:57.550Z,8.20
2023-04-16T00:06:55.859Z,8.20
2023-04-16T00:09:25.977Z,8.20
2023-04-16T00:11:54.719Z,8.20
2023-04-16T00:14:23.612Z,8.20
2023-04-16T00:16:52.276Z,8.20
2023-04-16T00:19:21.219Z,8.20
2023-04-16T00:21:51.617Z,8.20
2023-04-16T00:24:20.106Z,8.20
2023-04-16T00:27:04.879Z,8.10
2023-04-16T00:29:34.934Z,8.10
2023-04-16T00:32:03.814Z,8.10
2023-04-16T00:34:32.263Z,8.00
2023-04-16T00:37:01.371Z,8.00
2023-04-16T00:39:30.720Z,8.00
2023-04-16T00:42:20.625Z,8.00
2023-04-16T00:44:49.243Z,8.00
2023-04-16T00:47:18.363Z,8.10
2023-04-16T00:49:47.761Z,8.00
2023-04-16T00:52:16.673Z,8.00
2023-04-16T00:54:46.145Z,8.00
2023-04-16T00:57:15.727Z,8.00
2023-04-16T00:59:45.616Z,8.00
2023-04-16T01:02:31.347Z,8.00
2023-04-16T01:04:59.836Z,7.90
2023-04-16T01:07:28.353Z,7.90
2023-04-16T01:09:57.201Z,7.90
2023-04-16T01:12:46.267Z,7.90
2023-04-16T01:15:16.227Z,7.90
2023-04-16T01:17:47.079Z,7.80
2023-04-16T01:20:16.217Z,7.80
2023-04-16T01:22:46.267Z,7.80
2023-04-16T01:25:16.840Z,7.90
2023-04-16T01:27:46.097Z,7.80
2023-04-16T01:30:14.510Z,7.80
2023-04-16T01:32:53.779Z,7.80
2023-04-16T01:35:22.224Z,7.80
2023-04-16T01:38:10.537Z,7.80
2023-04-16T01:40:40.132Z,7.80
2023-04-16T01:43:08.792Z,7.80
2023-04-16T01:45:37.792Z,7.80
2023-04-16T01:48:06.646Z,7.80
2023-04-16T01:50:36.149Z,7.80
2023-04-16T01:53:05.305Z,7.80
2023-04-16T01:55:35.750Z,7.80
2023-04-16T01:58:04.568Z,7.80
2023-04-16T02:00:37.957Z,7.80
2023-04-16T02:03:07.053Z,7.80
2023-04-16T02:05:35.615Z,7.80
2023-04-16T02:08:04.047Z,7.80
2023-04-16T02:10:32.596Z,7.80
2023-04-16T02:13:02.615Z,7.70
2023-04-16T02:15:31.606Z,7.70
2023-04-16T02:18:02.756Z,7.70
2023-04-16T02:20:32.309Z,7.70
2023-04-16T02:23:22.060Z,7.70
2023-04-16T02:25:50.978Z,7.70
2023-04-16T02:28:21.122Z,7.70
2023-04-16T02:30:49.907Z,7.70
2023-04-16T02:33:20.362Z,7.70
2023-04-16T02:36:01.050Z,7.70
2023-04-16T02:38:30.114Z,7.80
2023-04-16T02:40:59.618Z,7.70
2023-04-16T02:43:33.022Z,7.70
2023-04-16T02:46:21.745Z,7.70
2023-04-16T02:48:51.839Z,7.70
2023-04-16T02:51:21.406Z,7.70
2023-04-16T02:53:50.275Z,7.70
2023-04-16T02:56:19.039Z,7.70
2023-04-16T02:58:49.184Z,7.60
2023-04-16T03:01:18.361Z,7.70
2023-04-16T03:03:47.081Z,7.70
2023-04-16T03:06:15.725Z,7.70
2023-04-16T03:08:44.500Z,7.60
2023-04-16T03:11:12.985Z,7.60
2023-04-16T03:13:42.740Z,7.60
2023-04-16T03:16:13.760Z,7.60
2023-04-16T03:18:42.431Z,7.60
2023-04-16T03:21:11.718Z,7.60
2023-04-16T03:23:41.296Z,7.70
2023-04-16T03:26:35.163Z,7.70
2023-04-16T03:29:06.167Z,7.70
2023-04-16T03:31:36.550Z,7.70
2023-04-16T03:34:06.406Z,7.70
2023-04-16T03:36:35.759Z,7.70
2023-04-16T03:39:05.239Z,7.70
2023-04-16T03:41:34.584Z,7.70
2023-04-16T03:44:04.664Z,7.70
2023-04-16T03:47:04.861Z,7.70
2023-04-16T03:50:03.294Z,7.70
2023-04-16T03:52:33.750Z,7.70
2023-04-16T03:55:04.073Z,7.70
2023-04-16T03:57:33.887Z,7.70
2023-04-16T04:00:10.300Z,7.70
2023-04-16T04:02:58.213Z,7.70
2023-04-16T04:05:47.286Z,7.80
2023-04-16T04:08:37.219Z,7.80
2023-04-16T04:11:11.793Z,7.70
2023-04-16T04:13:42.229Z,7.70
2023-04-16T04:16:11.314Z,7.80
2023-04-16T04:18:40.137Z,7.80
2023-04-16T04:21:09.354Z,7.80
2023-04-16T04:23:41.798Z,7.80
2023-04-16T04:26:14.092Z,7.70
2023-04-16T04:28:51.026Z,7.80
2023-04-16T04:31:21.053Z,7.80
2023-04-16T04:33:49.948Z,7.80
2023-04-16T04:36:19.360Z,7.80
2023-04-16T04:38:49.814Z,7.80
2023-04-16T04:41:39.414Z,7.80
2023-04-16T04:44:08.911Z,7.80
2023-04-16T04:46:38.159Z,7.90
2023-04-16T04:49:08.717Z,7.90
2023-04-16T04:51:37.725Z,7.90
2023-04-16T04:54:08.495Z,7.90
2023-04-16T04:56:37.764Z,7.90
2023-04-16T04:59:06.617Z,8.00
2023-04-16T05:01:36.299Z,8.00
2023-04-16T05:04:05.588Z,8.10
2023-04-16T05:06:34.576Z,8.10
2023-04-16T05:09:12.331Z,8.10
2023-04-16T05:11:45.098Z,8.20
2023-04-16T05:14:17.939Z,8.30
2023-04-16T05:16:47.111Z,8.40
2023-04-16T05:19:16.258Z,8.40
2023-04-16T05:21:47.884Z,8.50
2023-04-16T05:24:21.167Z,8.50
2023-04-16T05:26:50.144Z,8.50
2023-04-16T05:29:19.324Z,8.50
2023-04-16T05:31:48.320Z,8.50
2023-04-16T05:34:19.081Z,8.50
2023-04-16T05:36:51.016Z,8.60
2023-04-16T05:39:21.507Z,8.60
2023-04-16T05:41:50.338Z,8.60
2023-04-16T05:44:38.887Z,8.50
2023-04-16T05:47:09.571Z,8.50
2023-04-16T05:49:38.896Z,8.50
2023-04-16T05:52:08.058Z,8.50
2023-04-16T05:54:46.517Z,8.50
2023-04-16T05:57:18.990Z,8.50
2023-04-16T05:59:49.241Z,8.40
2023-04-16T06:02:21.615Z,8.40
2023-04-16T06:04:53.103Z,8.40
2023-04-16T06:07:26.618Z,8.40
2023-04-16T06:10:00.459Z,8.40
2023-04-16T06:12:29.132Z,8.40
2023-04-16T06:14:58.438Z,8.40
2023-04-16T06:17:33.480Z,8.40
2023-04-16T06:20:05.840Z,8.50
2023-04-16T06:22:34.712Z,8.60
2023-04-16T06:25:19.972Z,8.60
2023-04-16T06:27:54.494Z,8.70
2023-04-16T06:30:23.351Z,8.70
2023-04-16T06:32:52.357Z,8.80
2023-04-16T06:35:21.373Z,8.80
2023-04-16T06:37:50.545Z,8.80
2023-04-16T06:40:37.300Z,8.90
2023-04-16T06:43:06.026Z,9.10
2023-04-16T06:45:34.928Z,9.20
2023-04-16T06:48:05.486Z,9.20
2023-04-16T06:50:34.550Z,9.30
2023-04-16T06:53:03.407Z,9.40
2023-04-16T06:55:32.097Z,9.40
2023-04-16T06:58:03.981Z,9.50
2023-04-16T07:00:32.667Z,9.50
2023-04-16T07:03:03.673Z,9.50
2023-04-16T07:05:33.403Z,9.50
2023-04-16T07:08:01.956Z,9.50
2023-04-16T07:10:31.450Z,9.50
2023-04-16T07:13:02.856Z,9.50
2023-04-16T07:15:36.946Z,9.40
2023-04-16T07:18:05.612Z,9.50
2023-04-16T07:20:36.471Z,9.50
2023-04-16T07:23:05.607Z,9.50
2023-04-16T07:25:37.204Z,10.10
2023-04-16T07:28:25.285Z,9.50
2023-04-16T07:30:59.741Z,9.50
2023-04-16T07:33:28.344Z,9.50
2023-04-16T07:35:57.019Z,9.40
2023-04-16T07:38:25.757Z,9.40
2023-04-16T07:40:54.629Z,9.40
2023-04-16T07:43:33.848Z,9.40
2023-04-16T07:46:02.421Z,9.20
2023-04-16T07:48:30.978Z,9.30
2023-04-16T07:50:59.754Z,9.30
2023-04-16T07:53:29.796Z,9.30
2023-04-16T07:56:02.866Z,9.30
2023-04-16T07:58:33.594Z,9.30
2023-04-16T08:01:05.314Z,9.40
2023-04-16T08:03:36.666Z,9.40
2023-04-16T08:06:09.861Z,9.50
2023-04-16T08:08:44.342Z,9.50
2023-04-16T08:11:21.609Z,9.50
2023-04-16T08:13:54.573Z,9.50
2023-04-16T08:16:23.189Z,9.50
2023-04-16T08:18:51.741Z,9.60
2023-04-16T08:21:20.335Z,9.60
2023-04-16T08:23:50.509Z,9.60
2023-04-16T08:26:39.564Z,9.60
2023-04-16T08:29:09.895Z,9.60
2023-04-16T08:31:39.208Z,9.60
2023-04-16T08:34:16.770Z,9.70
2023-04-16T08:36:46.695Z,9.70
2023-04-16T08:39:15.557Z,9.60
2023-04-16T08:41:47.178Z,9.60
2023-04-16T08:44:22.561Z,9.50
2023-04-16T08:46:55.079Z,9.50
2023-04-16T08:49:25.489Z,9.50
2023-04-16T08:51:55.692Z,9.60
2023-04-16T08:54:38.314Z,9.70
2023-04-16T08:57:09.741Z,9.80
2023-04-16T08:59:40.117Z,9.80
2023-04-16T09:02:08.803Z,9.90
2023-04-16T09:04:39.811Z,10.00
2023-04-16T09:07:09.465Z,10.10
2023-04-16T09:09:40.317Z,10.10
2023-04-16T09:12:10.274Z,10.20
2023-04-16T09:14:50.811Z,10.20
2023-04-16T09:17:20.386Z,10.30
2023-04-16T09:19:49.037Z,10.30
2023-04-16T09:22:18.186Z,10.30
2023-04-16T09:24:47.256Z,10.40
2023-04-16T09:27:16.724Z,10.50
2023-04-16T09:29:47.804Z,10.40
2023-04-16T09:32:16.196Z,10.50
2023-04-16T09:34:59.046Z,10.70
2023-04-16T09:37:29.853Z,10.80
2023-04-16T09:40:01.181Z,11.00
2023-04-16T09:42:31.845Z,11.10
2023-04-16T09:45:04.116Z,11.20
2023-04-16T09:47:42.085Z,11.30
2023-04-16T09:50:17.811Z,11.20
2023-04-16T09:52:50.190Z,11.30
2023-04-16T09:55:23.538Z,11.40
2023-04-16T09:58:01.411Z,11.50
2023-04-16T10:00:32.559Z,11.60
2023-04-16T10:03:07.878Z,11.50
2023-04-16T10:05:37.136Z,11.60
2023-04-16T10:08:13.746Z,11.70
2023-04-16T10:10:42.655Z,11.70
2023-04-16T10:13:12.895Z,11.80
2023-04-16T10:15:59.005Z,11.80
2023-04-16T10:18:27.506Z,11.90
2023-04-16T10:20:56.404Z,12.00
2023-04-16T10:23:24.991Z,11.90
2023-04-16T10:25:57.477Z,12.00
2023-04-16T10:28:27.114Z,12.10
2023-04-16T10:31:00.118Z,12.20
2023-04-16T10:33:33.968Z,12.20
2023-04-16T10:36:13.263Z,12.10
2023-04-16T10:38:42.863Z,12.10
2023-04-16T10:41:11.576Z,12.10
2023-04-16T10:43:45.783Z,12.10
2023-04-16T10:46:27.032Z,12.00
2023-04-16T10:49:01.130Z,12.20
2023-04-16T10:51:31.531Z,12.20
2023-04-16T10:54:05.678Z,12.30
2023-04-16T10:56:34.833Z,12.30
2023-04-16T10:59:06.321Z,12.30
2023-04-16T11:01:39.043Z,12.30
2023-04-16T11:04:31.074Z,12.20
2023-04-16T11:07:18.910Z,12.30
2023-04-16T11:09:59.694Z,12.40
2023-04-16T11:12:34.705Z,12.40
2023-04-16T11:15:04.994Z,12.60
2023-04-16T11:17:38.565Z,12.50
2023-04-16T11:20:19.902Z,12.70
2023-04-16T11:22:50.975Z,13.00
2023-04-16T11:25:23.087Z,13.20
2023-04-16T11:27:52.101Z,13.40
2023-04-16T11:30:28.990Z,13.40
2023-04-16T11:32:58.142Z,13.50
2023-04-16T11:35:28.004Z,13.50
2023-04-16T11:37:57.857Z,13.60
2023-04-16T11:40:26.500Z,13.70
2023-04-16T11:42:56.394Z,13.60
2023-04-16T11:45:25.918Z,13.50
2023-04-16T11:47:57.681Z,13.30
2023-04-16T11:50:29.212Z,13.40
2023-04-16T11:52:59.090Z,13.40
2023-04-16T11:55:27.548Z,13.50
2023-04-16T11:57:56.110Z,13.60
2023-04-16T12:00:25.019Z,13.50
2023-04-16T12:02:55.037Z,13.40
2023-04-16T12:05:34.688Z,13.20
2023-04-16T12:08:04.318Z,13.10
2023-04-16T12:10:36.866Z,13.10
2023-04-16T12:13:13.539Z,13.20
2023-04-16T12:15:47.091Z,13.10
2023-04-16T12:18:16.236Z,13.20
2023-04-16T12:20:46.888Z,13.10
2023-04-16T12:23:25.399Z,13.20
2023-04-16T12:25:53.843Z,13.00
2023-04-16T12:28:30.354Z,13.00
2023-04-16T12:30:58.826Z,13.00
2023-04-16T12:33:27.713Z,12.90
2023-04-16T12:35:57.550Z,12.90
2023-04-16T12:38:26.869Z,12.80
2023-04-16T12:40:57.348Z,12.90
2023-04-16T12:43:26.363Z,13.20
2023-04-16T12:45:54.757Z,13.40
2023-04-16T12:48:23.097Z,13.40
2023-04-16T12:50:51.440Z,13.60
2023-04-16T12:53:21.177Z,13.60
2023-04-16T12:55:49.731Z,13.90
2023-04-16T12:58:17.956Z,13.90
2023-04-16T13:00:46.741Z,14.00
2023-04-16T13:03:15.281Z,14.20
2023-04-16T13:05:43.865Z,14.30
2023-04-16T13:08:12.808Z,14.30
2023-04-16T13:10:42.561Z,14.20
2023-04-16T13:13:10.836Z,14.10
2023-04-16T13:15:39.382Z,14.10
2023-04-16T13:18:07.758Z,14.30
2023-04-16T13:20:36.304Z,14.20
2023-04-16T13:23:04.986Z,14.20
2023-04-16T13:25:33.364Z,14.20
2023-04-16T13:28:03.183Z,14.20
2023-04-16T13:30:33.412Z,14.30
2023-04-16T13:33:01.979Z,14.40
2023-04-16T13:35:31.023Z,14.50
2023-04-16T13:37:59.336Z,14.60
2023-04-16T13:40:27.685Z,14.40
2023-04-16T13:42:56.258Z,14.10
2023-04-16T13:45:26.947Z,14.00
2023-04-16T13:47:56.117Z,13.80
2023-04-16T13:50:25.492Z,13.80
2023-04-16T13:52:54.176Z,13.90
2023-04-16T13:55:22.836Z,14.00
2023-04-16T13:57:52.606Z,14.20
2023-04-16T14:00:21.229Z,14.10
2023-04-16T14:02:51.479Z,14.00
2023-04-16T14:05:20.759Z,13.80
2023-04-16T14:07:48.990Z,13.70
2023-04-16T14:10:18.670Z,13.70
2023-04-16T14:12:47.115Z,13.70
2023-04-16T14:15:15.783Z,13.90
2023-04-16T14:17:44.690Z,14.10
2023-04-16T14:20:15.839Z,14.20
2023-04-16T14:22:46.631Z,14.30
2023-04-16T14:25:15.018Z,14.40
2023-04-16T14:27:43.348Z,14.50
2023-04-16T14:30:12.221Z,14.60
2023-04-16T14:32:40.945Z,14.70
2023-04-16T14:35:10.370Z,14.80
2023-04-16T14:37:40.888Z,14.90
2023-04-16T14:40:11.031Z,15.00
2023-04-16T14:42:40.551Z,15.10
2023-04-16T14:45:10.133Z,15.00
2023-04-16T14:47:46.003Z,14.90
2023-04-16T14:50:14.873Z,14.80
2023-04-16T14:52:44.844Z,14.70
2023-04-16T14:55:13.239Z,14.50
2023-04-16T14:57:41.716Z,14.50
2023-04-16T15:00:12.060Z,14.40
2023-04-16T15:02:40.813Z,14.30
2023-04-16T15:05:11.055Z,14.10
2023-04-16T15:07:39.615Z,13.90
2023-04-16T15:10:25.366Z,13.60
2023-04-16T15:12:54.281Z,13.40
2023-04-16T15:15:22.892Z,13.30
2023-04-16T15:17:52.213Z,14.40
2023-04-16T15:20:20.638Z,13.40
2023-04-16T15:22:49.075Z,13.60
2023-04-16T15:25:19.216Z,13.70
2023-04-16T15:27:47.652Z,13.70
2023-04-16T15:30:17.558Z,13.60
2023-04-16T15:32:46.479Z,13.60
2023-04-16T15:35:15.423Z,13.50
2023-04-16T15:37:47.767Z,13.50
2023-04-16T15:40:18.925Z,13.40
2023-04-16T15:42:48.868Z,13.40
2023-04-16T15:45:17.460Z,13.30
2023-04-16T15:47:51.465Z,13.30
2023-04-16T15:50:20.542Z,13.30
2023-04-16T15:52:49.503Z,13.30
2023-04-16T15:55:19.346Z,13.30
2023-04-16T15:57:49.282Z,13.40
2023-04-16T16:00:18.964Z,13.40
2023-04-16T16:02:48.334Z,13.40
2023-04-16T16:05:18.217Z,13.40
2023-04-16T16:07:46.864Z,13.40
2023-04-16T16:10:15.649Z,13.40
2023-04-16T16:12:44.057Z,13.30
2023-04-16T16:15:13.990Z,13.10
2023-04-16T16:17:42.448Z,13.10
2023-04-16T16:20:12.890Z,13.10
2023-04-16T16:22:43.115Z,13.00
2023-04-16T16:25:11.425Z,12.80
2023-04-16T16:27:40.762Z,12.70
2023-04-16T16:30:10.569Z,12.60
2023-04-16T16:32:41.230Z,12.50
2023-04-16T16:35:11.034Z,12.40
2023-04-16T16:37:39.760Z,12.40
2023-04-16T16:40:10.235Z,12.30
2023-04-16T16:42:38.651Z,12.20
2023-04-16T16:45:07.992Z,12.20
2023-04-16T16:47:36.536Z,12.10
2023-04-16T16:50:11.563Z,12.00
2023-04-16T16:52:40.227Z,11.90
2023-04-16T16:55:11.091Z,11.80
2023-04-16T16:57:39.820Z,11.70
2023-04-16T17:00:14.167Z,11.60
2023-04-16T17:02:42.682Z,11.50
2023-04-16T17:05:13.951Z,11.30
2023-04-16T17:07:42.464Z,11.30
2023-04-16T17:10:13.237Z,11.20
2023-04-16T17:12:42.182Z,11.20
2023-04-16T17:15:11.544Z,11.10
2023-04-16T17:17:40.012Z,11.00
2023-04-16T17:20:10.082Z,11.00
2023-04-16T17:22:40.514Z,10.90
2023-04-16T17:25:09.922Z,10.90
2023-04-16T17:27:41.295Z,10.90
2023-04-16T17:30:10.741Z,10.80
2023-04-16T17:32:39.181Z,10.70
2023-04-16T17:35:09.485Z,10.70
2023-04-16T17:37:39.269Z,10.70
2023-04-16T17:40:10.119Z,10.60
2023-04-16T17:42:40.954Z,10.50
2023-04-16T17:45:10.079Z,10.50
2023-04-16T17:47:40.522Z,10.40
2023-04-16T17:50:10.090Z,10.40
2023-04-16T17:52:39.974Z,10.40
2023-04-16T17:55:09.109Z,10.30
2023-04-16T17:57:37.867Z,10.30
2023-04-16T18:00:10.841Z,10.20
2023-04-16T18:02:42.183Z,10.20
2023-04-16T18:05:11.059Z,10.20
2023-04-16T18:07:40.988Z,10.10
2023-04-16T18:10:11.923Z,10.10
2023-04-16T18:12:40.366Z,10.00
2023-04-16T18:15:09.978Z,10.00
2023-04-16T18:17:38.718Z,9.90
2023-04-16T18:20:09.154Z,9.90
2023-04-16T18:22:37.589Z,9.80
2023-04-16T18:25:10.263Z,9.80
2023-04-16T18:27:39.283Z,9.80
2023-04-16T18:30:19.803Z,9.70
2023-04-16T18:33:11.544Z,9.60
2023-04-16T18:35:45.275Z,9.60
2023-04-16T18:38:14.492Z,9.50
2023-04-16T18:40:44.310Z,9.40
2023-04-16T18:43:12.746Z,9.40
2023-04-16T18:45:42.957Z,9.30
2023-04-16T18:48:11.483Z,9.20
2023-04-16T18:50:40.728Z,9.20
2023-04-16T18:53:09.176Z,9.10
2023-04-16T18:55:37.930Z,9.00
2023-04-16T18:58:07.753Z,8.90
2023-04-16T19:00:36.148Z,8.90
2023-04-16T19:03:07.118Z,8.90
2023-04-16T19:05:35.762Z,8.90
2023-04-16T19:08:04.397Z,8.80
2023-04-16T19:10:32.816Z,8.80
2023-04-16T19:13:01.287Z,8.70
2023-04-16T19:15:33.175Z,8.60
2023-04-16T19:18:02.851Z,8.60
2023-04-16T19:20:31.280Z,8.60
2023-04-16T19:22:59.846Z,8.50
2023-04-16T19:25:28.401Z,8.50
2023-04-16T19:27:56.894Z,8.40
2023-04-16T19:30:25.260Z,8.40
2023-04-16T19:32:55.657Z,8.30
2023-04-16T19:35:24.191Z,8.30
2023-04-16T19:37:52.921Z,8.20
2023-04-16T19:40:21.359Z,8.20
2023-04-16T19:42:49.598Z,8.10
2023-04-16T19:45:18.506Z,8.10
2023-04-16T19:47:48.847Z,8.00
2023-04-16T19:50:18.941Z,8.00
2023-04-16T19:52:49.110Z,7.90
2023-04-16T19:55:17.904Z,7.90
2023-04-16T19:57:46.348Z,7.80
2023-04-16T20:00:15.557Z,7.80
2023-04-16T20:02:43.989Z,7.80
2023-04-16T20:05:12.556Z,7.80
2023-04-16T20:07:42.418Z,7.70
2023-04-16T20:10:11.776Z,7.70
2023-04-16T20:12:40.230Z,7.60
2023-04-16T20:15:09.982Z,7.60
2023-04-16T20:17:38.511Z,7.60
2023-04-16T20:20:10.152Z,7.60
2023-04-16T20:22:38.675Z,7.60
2023-04-16T20:25:10.136Z,7.50
2023-04-16T20:27:38.632Z,7.50
2023-04-16T20:30:08.612Z,7.50
2023-04-16T20:32:37.075Z,7.40
2023-04-16T20:35:10.447Z,7.40
2023-04-16T20:37:39.256Z,7.30
2023-04-16T20:40:11.076Z,7.30
2023-04-16T20:42:40.849Z,7.30
2023-04-16T20:45:11.156Z,7.30
2023-04-16T20:47:39.610Z,7.30
2023-04-16T20:50:11.211Z,7.40
2023-04-16T20:52:39.639Z,7.40
2023-04-16T20:55:10.561Z,7.40
2023-04-16T20:57:39.027Z,7.40
2023-04-16T21:00:12.425Z,7.40
2023-04-16T21:02:49.690Z,7.30
2023-04-16T21:05:21.400Z,7.40
2023-04-16T21:07:55.759Z,7.40
2023-04-16T21:10:25.728Z,7.30
2023-04-16T21:12:54.197Z,7.30
2023-04-16T21:15:22.790Z,7.30
2023-04-16T21:17:51.351Z,7.30
2023-04-16T21:20:20.353Z,7.30
2023-04-16T21:22:50.453Z,7.30
2023-04-16T21:25:18.943Z,7.30
2023-04-16T21:27:48.835Z,7.30
2023-04-16T21:30:17.485Z,7.30
2023-04-16T21:32:46.162Z,7.30
2023-04-16T21:35:14.777Z,7.30
2023-04-16T21:37:43.227Z,7.30
2023-04-16T21:40:12.508Z,7.40
2023-04-16T21:42:42.456Z,7.10
2023-04-16T21:45:14.604Z,7.50
2023-04-16T21:47:46.258Z,7.60
2023-04-16T21:50:15.099Z,7.70
2023-04-16T21:52:46.860Z,7.70
2023-04-16T21:55:15.573Z,7.80
2023-04-16T21:57:43.993Z,7.80
2023-04-16T22:00:15.178Z,7.80
2023-04-16T22:02:43.803Z,7.90
2023-04-16T22:05:12.682Z,7.90
2023-04-16T22:07:41.334Z,7.90
2023-04-16T22:10:11.826Z,8.00
2023-04-16T22:12:42.056Z,8.00
2023-04-16T22:15:10.964Z,8.00
2023-04-16T22:17:41.202Z,8.10
2023-04-16T22:20:12.537Z,8.10
2023-04-16T22:22:41.090Z,8.10
2023-04-16T22:25:10.334Z,8.10
2023-04-16T22:27:39.112Z,8.10
2023-04-16T22:30:08.566Z,8.10
2023-04-16T22:32:37.000Z,8.10
2023-04-16T22:35:07.449Z,8.00
2023-04-16T22:37:35.840Z,7.90
2023-04-16T22:40:07.130Z,7.90
2023-04-16T22:42:35.526Z,7.80
2023-04-16T22:45:04.602Z,7.80
2023-04-16T22:47:32.934Z,7.70
2023-04-16T22:50:01.375Z,7.70
2023-04-16T22:52:31.337Z,7.60
2023-04-16T22:54:59.658Z,7.60
2023-04-16T22:57:27.918Z,7.60
2023-04-16T22:59:56.339Z,7.50
2023-04-16T23:02:26.569Z,7.50
2023-04-16T23:04:55.029Z,7.50
2023-04-16T23:07:23.356Z,7.50
2023-04-16T23:09:53.251Z,7.60
2023-04-16T23:12:21.532Z,7.60
2023-04-16T23:14:49.853Z,7.60
2023-04-16T23:17:18.183Z,7.60
2023-04-16T23:19:46.498Z,7.70
2023-04-16T23:22:14.991Z,7.70
2023-04-16T23:24:43.366Z,7.80
2023-04-16T23:27:13.080Z,7.80
2023-04-16T23:29:41.374Z,7.90
2023-04-16T23:32:09.686Z,7.90
2023-04-16T23:34:38.087Z,7.90
2023-04-16T23:37:06.441Z,8.00
2023-04-16T23:39:34.769Z,8.00
2023-04-16T23:42:03.318Z,8.00
2023-04-16T23:44:33.081Z,8.00
2023-04-16T23:47:01.550Z,8.00
2023-04-16T23:49:30.129Z,8.10
2023-04-16T23:51:58.556Z,8.10
2023-04-16T23:54:26.953Z,8.10
2023-04-16T23:56:55.245Z,8.10
2023-04-16T23:59:24.216Z,8.10
